sensor_id;sensor_type;location;lat;lon;timestamp;temperature;humidity
44982;DHT22;30716;41.740;-70.400;2023-04-25T00:01:36;24.00;42.60
44982;DHT22;30716;41.740;-70.400;2023-04-25T00:04:04;24.10;42.70
44982;DHT22;30716;41.740;-70.400;2023-04-25T00:06:34;24.10;42.50
44982;DHT22;30716;41.740;-70.400;2023-04-25T00:09:05;24.10;42.50
44982;DHT22;30716;41.740;-70.400;2023-04-25T00:11:36;24.10;42.50
44982;DHT22;30716;41.740;-70.400;2023-04-25T00:14:03;24.00;42.60
44982;DHT22;30716;41.740;-70.400;2023-04-25T00:16:30;24.10;42.70
44982;DHT22;30716;41.740;-70.400;2023-04-25T00:19:00;24.10;42.60
44982;DHT22;30716;41.740;-70.400;2023-04-25T00:21:27;24.10;42.60
44982;DHT22;30716;41.740;-70.400;2023-04-25T00:23:54;24.00;42.60
44982;DHT22;30716;41.740;-70.400;2023-04-25T00:26:20;24.10;42.60
44982;DHT22;30716;41.740;-70.400;2023-04-25T00:28:47;24.10;42.60
44982;DHT22;30716;41.740;-70.400;2023-04-25T00:31:14;24.10;42.70
44982;DHT22;30716;41.740;-70.400;2023-04-25T00:33:40;24.00;42.60
44982;DHT22;30716;41.740;-70.400;2023-04-25T00:36:07;24.10;42.70
44982;DHT22;30716;41.740;-70.400;2023-04-25T00:38:33;24.10;42.70
44982;DHT22;30716;41.740;-70.400;2023-04-25T00:40:59;24.10;42.70
44982;DHT22;30716;41.740;-70.400;2023-04-25T00:43:27;24.10;42.70
44982;DHT22;30716;41.740;-70.400;2023-04-25T00:45:53;24.10;42.70
44982;DHT22;30716;41.740;-70.400;2023-04-25T00:48:22;24.10;42.70
44982;DHT22;30716;41.740;-70.400;2023-04-25T00:50:53;24.00;42.60
44982;DHT22;30716;41.740;-70.400;2023-04-25T00:53:23;24.00;42.60
44982;DHT22;30716;41.740;-70.400;2023-04-25T00:55:51;24.10;42.80
44982;DHT22;30716;41.740;-70.400;2023-04-25T00:58:18;24.00;42.60
44982;DHT22;30716;41.740;-70.400;2023-04-25T01:00:46;24.00;42.70
44982;DHT22;30716;41.740;-70.400;2023-04-25T01:03:13;24.00;42.70
44982;DHT22;30716;41.740;-70.400;2023-04-25T01:05:42;24.00;42.70
44982;DHT22;30716;41.740;-70.400;2023-04-25T01:08:09;24.00;42.60
44982;DHT22;30716;41.740;-70.400;2023-04-25T01:10:35;24.00;42.60
44982;DHT22;30716;41.740;-70.400;2023-04-25T01:13:02;24.10;42.70
44982;DHT22;30716;41.740;-70.400;2023-04-25T01:15:28;24.10;42.70
44982;DHT22;30716;41.740;-70.400;2023-04-25T01:17:55;24.10;42.70
44982;DHT22;30716;41.740;-70.400;2023-04-25T01:20:25;24.10;42.70
44982;DHT22;30716;41.740;-70.400;2023-04-25T01:22:56;24.10;42.70
44982;DHT22;30716;41.740;-70.400;2023-04-25T01:25:23;24.10;42.70
44982;DHT22;30716;41.740;-70.400;2023-04-25T01:27:49;24.10;42.80
44982;DHT22;30716;41.740;-70.400;2023-04-25T01:30:16;24.10;42.70
44982;DHT22;30716;41.740;-70.400;2023-04-25T01:32:42;24.10;42.70
44982;DHT22;30716;41.740;-70.400;2023-04-25T01:35:11;24.10;42.70
44982;DHT22;30716;41.740;-70.400;2023-04-25T01:37:41;24.10;42.70
44982;DHT22;30716;41.740;-70.400;2023-04-25T01:40:09;24.10;42.80
44982;DHT22;30716;41.740;-70.400;2023-04-25T01:42:39;24.10;42.80
44982;DHT22;30716;41.740;-70.400;2023-04-25T01:45:06;24.10;42.70
44982;DHT22;30716;41.740;-70.400;2023-04-25T01:47:33;24.10;42.60
44982;DHT22;30716;41.740;-70.400;2023-04-25T01:50:02;24.10;42.70
44982;DHT22;30716;41.740;-70.400;2023-04-25T01:52:28;24.10;42.70
44982;DHT22;30716;41.740;-70.400;2023-04-25T01:54:55;24.10;42.80
44982;DHT22;30716;41.740;-70.400;2023-04-25T01:57:22;24.00;42.70
44982;DHT22;30716;41.740;-70.400;2023-04-25T01:59:49;24.10;43.50
44982;DHT22;30716;41.740;-70.400;2023-04-25T02:02:15;24.00;42.70
44982;DHT22;30716;41.740;-70.400;2023-04-25T02:04:46;24.10;42.80
44982;DHT22;30716;41.740;-70.400;2023-04-25T02:07:12;24.10;42.80
44982;DHT22;30716;41.740;-70.400;2023-04-25T02:09:38;24.10;42.80
44982;DHT22;30716;41.740;-70.400;2023-04-25T02:12:04;24.00;42.70
44982;DHT22;30716;41.740;-70.400;2023-04-25T02:14:31;24.10;42.80
44982;DHT22;30716;41.740;-70.400;2023-04-25T02:16:57;24.10;42.80
44982;DHT22;30716;41.740;-70.400;2023-04-25T02:19:24;24.00;42.80
44982;DHT22;30716;41.740;-70.400;2023-04-25T02:21:50;24.10;42.90
44982;DHT22;30716;41.740;-70.400;2023-04-25T02:24:16;24.00;42.90
44982;DHT22;30716;41.740;-70.400;2023-04-25T02:26:42;24.10;42.90
44982;DHT22;30716;41.740;-70.400;2023-04-25T02:29:10;24.10;42.80
44982;DHT22;30716;41.740;-70.400;2023-04-25T02:31:36;24.10;43.00
44982;DHT22;30716;41.740;-70.400;2023-04-25T02:34:02;24.00;42.80
44982;DHT22;30716;41.740;-70.400;2023-04-25T02:36:28;24.00;42.80
44982;DHT22;30716;41.740;-70.400;2023-04-25T02:38:58;24.10;42.90
44982;DHT22;30716;41.740;-70.400;2023-04-25T02:41:24;24.00;42.90
44982;DHT22;30716;41.740;-70.400;2023-04-25T02:43:50;24.00;42.90
44982;DHT22;30716;41.740;-70.400;2023-04-25T02:46:17;24.00;42.90
44982;DHT22;30716;41.740;-70.400;2023-04-25T02:48:43;24.00;42.70
44982;DHT22;30716;41.740;-70.400;2023-04-25T02:51:09;24.10;42.80
44982;DHT22;30716;41.740;-70.400;2023-04-25T02:53:35;24.10;42.80
44982;DHT22;30716;41.740;-70.400;2023-04-25T02:56:01;24.10;42.80
44982;DHT22;30716;41.740;-70.400;2023-04-25T02:58:27;24.10;42.80
44982;DHT22;30716;41.740;-70.400;2023-04-25T03:00:54;24.10;42.80
44982;DHT22;30716;41.740;-70.400;2023-04-25T03:03:20;24.10;42.80
44982;DHT22;30716;41.740;-70.400;2023-04-25T03:05:50;24.10;42.70
44982;DHT22;30716;41.740;-70.400;2023-04-25T03:08:18;24.10;42.80
44982;DHT22;30716;41.740;-70.400;2023-04-25T03:10:45;24.10;42.80
44982;DHT22;30716;41.740;-70.400;2023-04-25T03:13:11;24.10;42.80
44982;DHT22;30716;41.740;-70.400;2023-04-25T03:15:39;24.10;42.70
44982;DHT22;30716;41.740;-70.400;2023-04-25T03:18:05;24.10;42.80
44982;DHT22;30716;41.740;-70.400;2023-04-25T03:20:31;24.10;42.80
44982;DHT22;30716;41.740;-70.400;2023-04-25T03:22:57;24.10;42.90
44982;DHT22;30716;41.740;-70.400;2023-04-25T03:25:23;24.00;42.70
44982;DHT22;30716;41.740;-70.400;2023-04-25T03:27:55;24.10;43.00
44982;DHT22;30716;41.740;-70.400;2023-04-25T03:30:21;24.10;42.80
44982;DHT22;30716;41.740;-70.400;2023-04-25T03:32:47;24.10;42.80
44982;DHT22;30716;41.740;-70.400;2023-04-25T03:35:13;24.00;42.70
44982;DHT22;30716;41.740;-70.400;2023-04-25T03:37:40;24.00;42.70
44982;DHT22;30716;41.740;-70.400;2023-04-25T03:40:08;24.10;42.90
44982;DHT22;30716;41.740;-70.400;2023-04-25T03:42:34;24.00;42.70
44982;DHT22;30716;41.740;-70.400;2023-04-25T03:45:00;24.10;42.90
44982;DHT22;30716;41.740;-70.400;2023-04-25T03:47:26;24.10;43.00
44982;DHT22;30716;41.740;-70.400;2023-04-25T03:49:53;24.00;42.90
44982;DHT22;30716;41.740;-70.400;2023-04-25T03:52:19;24.00;42.80
44982;DHT22;30716;41.740;-70.400;2023-04-25T03:54:45;24.00;42.80
44982;DHT22;30716;41.740;-70.400;2023-04-25T03:57:11;24.10;42.80
44982;DHT22;30716;41.740;-70.400;2023-04-25T03:59:37;24.00;42.80
44982;DHT22;30716;41.740;-70.400;2023-04-25T04:02:04;24.00;42.90
44982;DHT22;30716;41.740;-70.400;2023-04-25T04:04:30;24.10;43.00
44982;DHT22;30716;41.740;-70.400;2023-04-25T04:06:56;24.00;42.80
44982;DHT22;30716;41.740;-70.400;2023-04-25T04:09:22;24.00;43.10
44982;DHT22;30716;41.740;-70.400;2023-04-25T04:11:49;24.00;43.00
44982;DHT22;30716;41.740;-70.400;2023-04-25T04:14:15;24.00;43.00
44982;DHT22;30716;41.740;-70.400;2023-04-25T04:16:41;24.00;43.00
44982;DHT22;30716;41.740;-70.400;2023-04-25T04:19:08;24.00;43.10
44982;DHT22;30716;41.740;-70.400;2023-04-25T04:21:34;24.00;42.90
44982;DHT22;30716;41.740;-70.400;2023-04-25T04:24:00;24.00;42.90
44982;DHT22;30716;41.740;-70.400;2023-04-25T04:26:26;24.00;42.90
44982;DHT22;30716;41.740;-70.400;2023-04-25T04:28:53;24.00;42.90
44982;DHT22;30716;41.740;-70.400;2023-04-25T04:31:23;24.00;42.90
44982;DHT22;30716;41.740;-70.400;2023-04-25T04:33:49;24.00;43.00
44982;DHT22;30716;41.740;-70.400;2023-04-25T04:36:16;24.00;42.90
44982;DHT22;30716;41.740;-70.400;2023-04-25T04:38:45;24.00;42.90
44982;DHT22;30716;41.740;-70.400;2023-04-25T04:41:11;24.00;43.00
44982;DHT22;30716;41.740;-70.400;2023-04-25T04:43:37;24.00;43.00
44982;DHT22;30716;41.740;-70.400;2023-04-25T04:46:05;24.00;43.00
44982;DHT22;30716;41.740;-70.400;2023-04-25T04:48:34;24.00;43.00
44982;DHT22;30716;41.740;-70.400;2023-04-25T04:51:00;24.00;43.00
44982;DHT22;30716;41.740;-70.400;2023-04-25T04:53:27;24.00;43.00
44982;DHT22;30716;41.740;-70.400;2023-04-25T04:55:53;24.00;43.00
44982;DHT22;30716;41.740;-70.400;2023-04-25T04:58:19;24.00;43.00
44982;DHT22;30716;41.740;-70.400;2023-04-25T05:00:46;24.00;43.00
44982;DHT22;30716;41.740;-70.400;2023-04-25T05:03:12;23.90;43.00
44982;DHT22;30716;41.740;-70.400;2023-04-25T05:05:38;24.00;43.10
44982;DHT22;30716;41.740;-70.400;2023-04-25T05:08:06;23.90;43.10
44982;DHT22;30716;41.740;-70.400;2023-04-25T05:10:34;23.90;43.00
44982;DHT22;30716;41.740;-70.400;2023-04-25T05:13:00;23.90;43.10
44982;DHT22;30716;41.740;-70.400;2023-04-25T05:15:26;23.90;43.10
44982;DHT22;30716;41.740;-70.400;2023-04-25T05:17:53;23.90;43.10
44982;DHT22;30716;41.740;-70.400;2023-04-25T05:20:19;23.90;43.00
44982;DHT22;30716;41.740;-70.400;2023-04-25T05:22:45;24.00;43.20
44982;DHT22;30716;41.740;-70.400;2023-04-25T05:25:11;24.00;43.20
44982;DHT22;30716;41.740;-70.400;2023-04-25T05:27:37;24.00;43.10
44982;DHT22;30716;41.740;-70.400;2023-04-25T05:30:04;23.90;43.10
44982;DHT22;30716;41.740;-70.400;2023-04-25T05:32:31;24.00;43.20
44982;DHT22;30716;41.740;-70.400;2023-04-25T05:34:57;23.90;43.10
44982;DHT22;30716;41.740;-70.400;2023-04-25T05:37:23;23.90;43.00
44982;DHT22;30716;41.740;-70.400;2023-04-25T05:39:49;23.90;42.90
44982;DHT22;30716;41.740;-70.400;2023-04-25T05:42:15;24.00;42.90
44982;DHT22;30716;41.740;-70.400;2023-04-25T05:44:42;24.00;43.00
44982;DHT22;30716;41.740;-70.400;2023-04-25T05:47:08;24.00;42.90
44982;DHT22;30716;41.740;-70.400;2023-04-25T05:49:34;24.00;43.00
44982;DHT22;30716;41.740;-70.400;2023-04-25T05:52:01;24.00;43.00
44982;DHT22;30716;41.740;-70.400;2023-04-25T05:54:27;24.00;42.90
44982;DHT22;30716;41.740;-70.400;2023-04-25T05:56:53;24.00;43.00
44982;DHT22;30716;41.740;-70.400;2023-04-25T05:59:19;24.00;43.00
44982;DHT22;30716;41.740;-70.400;2023-04-25T06:01:45;24.00;43.00
44982;DHT22;30716;41.740;-70.400;2023-04-25T06:04:12;24.00;43.70
44982;DHT22;30716;41.740;-70.400;2023-04-25T06:06:39;24.00;43.00
44982;DHT22;30716;41.740;-70.400;2023-04-25T06:09:05;23.90;42.90
44982;DHT22;30716;41.740;-70.400;2023-04-25T06:11:31;24.00;43.00
44982;DHT22;30716;41.740;-70.400;2023-04-25T06:13:57;24.00;43.00
44982;DHT22;30716;41.740;-70.400;2023-04-25T06:16:23;24.00;43.00
44982;DHT22;30716;41.740;-70.400;2023-04-25T06:18:51;24.00;43.00
44982;DHT22;30716;41.740;-70.400;2023-04-25T06:21:17;24.00;43.00
44982;DHT22;30716;41.740;-70.400;2023-04-25T06:23:44;24.00;43.00
44982;DHT22;30716;41.740;-70.400;2023-04-25T06:26:10;24.00;43.10
44982;DHT22;30716;41.740;-70.400;2023-04-25T06:28:36;24.00;43.00
44982;DHT22;30716;41.740;-70.400;2023-04-25T06:31:02;24.00;43.00
44982;DHT22;30716;41.740;-70.400;2023-04-25T06:33:28;24.00;43.10
44982;DHT22;30716;41.740;-70.400;2023-04-25T06:35:55;24.00;42.90
44982;DHT22;30716;41.740;-70.400;2023-04-25T06:38:21;24.00;43.10
44982;DHT22;30716;41.740;-70.400;2023-04-25T06:40:47;24.00;43.00
44982;DHT22;30716;41.740;-70.400;2023-04-25T06:43:13;24.00;43.00
44982;DHT22;30716;41.740;-70.400;2023-04-25T06:45:39;23.90;43.00
44982;DHT22;30716;41.740;-70.400;2023-04-25T06:48:05;23.90;43.00
44982;DHT22;30716;41.740;-70.400;2023-04-25T06:50:31;24.00;43.00
44982;DHT22;30716;41.740;-70.400;2023-04-25T06:52:58;24.00;43.10
44982;DHT22;30716;41.740;-70.400;2023-04-25T06:55:24;23.90;43.00
44982;DHT22;30716;41.740;-70.400;2023-04-25T06:57:50;23.90;43.10
44982;DHT22;30716;41.740;-70.400;2023-04-25T07:00:16;23.90;43.00
44982;DHT22;30716;41.740;-70.400;2023-04-25T07:02:43;23.90;43.10
44982;DHT22;30716;41.740;-70.400;2023-04-25T07:05:09;23.90;43.10
44982;DHT22;30716;41.740;-70.400;2023-04-25T07:07:35;23.90;43.20
44982;DHT22;30716;41.740;-70.400;2023-04-25T07:10:01;23.90;43.10
44982;DHT22;30716;41.740;-70.400;2023-04-25T07:12:27;23.90;43.20
44982;DHT22;30716;41.740;-70.400;2023-04-25T07:14:53;23.90;43.10
44982;DHT22;30716;41.740;-70.400;2023-04-25T07:17:20;23.90;43.10
44982;DHT22;30716;41.740;-70.400;2023-04-25T07:19:46;23.90;43.10
44982;DHT22;30716;41.740;-70.400;2023-04-25T07:22:12;23.90;43.20
44982;DHT22;30716;41.740;-70.400;2023-04-25T07:24:38;23.90;43.20
44982;DHT22;30716;41.740;-70.400;2023-04-25T07:27:04;23.90;43.10
44982;DHT22;30716;41.740;-70.400;2023-04-25T07:29:30;23.90;43.10
44982;DHT22;30716;41.740;-70.400;2023-04-25T07:31:57;23.90;43.20
44982;DHT22;30716;41.740;-70.400;2023-04-25T07:34:23;23.90;43.10
44982;DHT22;30716;41.740;-70.400;2023-04-25T07:36:49;23.90;43.10
44982;DHT22;30716;41.740;-70.400;2023-04-25T07:39:16;23.90;43.20
44982;DHT22;30716;41.740;-70.400;2023-04-25T07:41:42;23.90;43.20
44982;DHT22;30716;41.740;-70.400;2023-04-25T07:44:08;23.90;43.20
44982;DHT22;30716;41.740;-70.400;2023-04-25T07:46:35;23.90;43.20
44982;DHT22;30716;41.740;-70.400;2023-04-25T07:49:01;23.90;43.10
44982;DHT22;30716;41.740;-70.400;2023-04-25T07:51:27;23.90;43.20
44982;DHT22;30716;41.740;-70.400;2023-04-25T07:53:53;23.90;43.20
44982;DHT22;30716;41.740;-70.400;2023-04-25T07:56:20;23.90;43.20
44982;DHT22;30716;41.740;-70.400;2023-04-25T07:58:46;23.90;43.10
44982;DHT22;30716;41.740;-70.400;2023-04-25T08:01:12;23.80;43.10
44982;DHT22;30716;41.740;-70.400;2023-04-25T08:03:38;23.90;43.20
44982;DHT22;30716;41.740;-70.400;2023-04-25T08:06:04;23.90;43.20
44982;DHT22;30716;41.740;-70.400;2023-04-25T08:08:30;23.80;44.00
44982;DHT22;30716;41.740;-70.400;2023-04-25T08:10:56;23.80;43.20
44982;DHT22;30716;41.740;-70.400;2023-04-25T08:13:23;23.90;43.20
44982;DHT22;30716;41.740;-70.400;2023-04-25T08:15:49;23.90;43.10
44982;DHT22;30716;41.740;-70.400;2023-04-25T08:18:15;23.90;43.10
44982;DHT22;30716;41.740;-70.400;2023-04-25T08:20:41;23.80;43.00
44982;DHT22;30716;41.740;-70.400;2023-04-25T08:23:07;23.80;43.00
44982;DHT22;30716;41.740;-70.400;2023-04-25T08:25:34;23.80;43.20
44982;DHT22;30716;41.740;-70.400;2023-04-25T08:28:00;23.80;43.00
44982;DHT22;30716;41.740;-70.400;2023-04-25T08:30:28;23.90;43.10
44982;DHT22;30716;41.740;-70.400;2023-04-25T08:32:54;23.90;43.00
44982;DHT22;30716;41.740;-70.400;2023-04-25T08:35:21;23.90;43.00
44982;DHT22;30716;41.740;-70.400;2023-04-25T08:37:47;23.90;43.10
44982;DHT22;30716;41.740;-70.400;2023-04-25T08:40:15;23.90;43.10
44982;DHT22;30716;41.740;-70.400;2023-04-25T08:42:42;23.80;43.10
44982;DHT22;30716;41.740;-70.400;2023-04-25T08:45:09;23.80;43.10
44982;DHT22;30716;41.740;-70.400;2023-04-25T08:47:38;23.90;43.10
44982;DHT22;30716;41.740;-70.400;2023-04-25T08:50:05;23.90;43.20
44982;DHT22;30716;41.740;-70.400;2023-04-25T08:52:44;23.80;43.10
44982;DHT22;30716;41.740;-70.400;2023-04-25T08:55:14;23.80;43.20
44982;DHT22;30716;41.740;-70.400;2023-04-25T08:57:42;23.80;43.10
44982;DHT22;30716;41.740;-70.400;2023-04-25T09:00:12;23.80;43.20
44982;DHT22;30716;41.740;-70.400;2023-04-25T09:02:42;23.80;43.30
44982;DHT22;30716;41.740;-70.400;2023-04-25T09:05:09;23.80;43.30
44982;DHT22;30716;41.740;-70.400;2023-04-25T09:07:38;23.80;43.20
44982;DHT22;30716;41.740;-70.400;2023-04-25T09:10:04;23.90;43.20
44982;DHT22;30716;41.740;-70.400;2023-04-25T09:12:31;23.90;43.10
44982;DHT22;30716;41.740;-70.400;2023-04-25T09:15:11;23.90;43.10
44982;DHT22;30716;41.740;-70.400;2023-04-25T09:17:41;23.90;43.00
44982;DHT22;30716;41.740;-70.400;2023-04-25T09:20:12;23.90;42.90
44982;DHT22;30716;41.740;-70.400;2023-04-25T09:22:38;23.90;42.70
44982;DHT22;30716;41.740;-70.400;2023-04-25T09:25:12;23.90;42.70
44982;DHT22;30716;41.740;-70.400;2023-04-25T09:27:53;23.90;42.60
44982;DHT22;30716;41.740;-70.400;2023-04-25T09:30:30;23.90;42.70
44982;DHT22;30716;41.740;-70.400;2023-04-25T09:33:10;24.00;42.60
44982;DHT22;30716;41.740;-70.400;2023-04-25T09:38:22;24.00;42.70
44982;DHT22;30716;41.740;-70.400;2023-04-25T09:40:48;23.90;42.70
44982;DHT22;30716;41.740;-70.400;2023-04-25T09:43:25;23.90;42.70
44982;DHT22;30716;41.740;-70.400;2023-04-25T09:45:53;23.90;42.80
44982;DHT22;30716;41.740;-70.400;2023-04-25T09:48:20;23.90;42.80
44982;DHT22;30716;41.740;-70.400;2023-04-25T09:51:13;24.00;42.80
44982;DHT22;30716;41.740;-70.400;2023-04-25T09:53:46;23.90;42.80
44982;DHT22;30716;41.740;-70.400;2023-04-25T09:56:16;23.90;42.90
44982;DHT22;30716;41.740;-70.400;2023-04-25T09:58:42;23.90;42.70
44982;DHT22;30716;41.740;-70.400;2023-04-25T10:01:10;24.00;42.70
44982;DHT22;30716;41.740;-70.400;2023-04-25T10:03:40;24.00;42.60
44982;DHT22;30716;41.740;-70.400;2023-04-25T10:06:09;24.10;42.60
44982;DHT22;30716;41.740;-70.400;2023-04-25T10:08:38;24.10;42.50
44982;DHT22;30716;41.740;-70.400;2023-04-25T10:11:05;24.10;42.70
44982;DHT22;30716;41.740;-70.400;2023-04-25T10:13:34;24.10;42.50
44982;DHT22;30716;41.740;-70.400;2023-04-25T10:16:04;24.10;42.40
44982;DHT22;30716;41.740;-70.400;2023-04-25T10:18:32;24.10;42.40
44982;DHT22;30716;41.740;-70.400;2023-04-25T10:21:01;24.10;42.40
44982;DHT22;30716;41.740;-70.400;2023-04-25T10:23:29;24.10;42.50
44982;DHT22;30716;41.740;-70.400;2023-04-25T10:25:56;24.10;42.30
44982;DHT22;30716;41.740;-70.400;2023-04-25T10:28:23;24.10;42.40
44982;DHT22;30716;41.740;-70.400;2023-04-25T10:31:03;24.10;42.50
44982;DHT22;30716;41.740;-70.400;2023-04-25T10:33:37;24.10;42.40
44982;DHT22;30716;41.740;-70.400;2023-04-25T10:36:14;24.10;42.40
44982;DHT22;30716;41.740;-70.400;2023-04-25T10:38:42;24.10;42.40
44982;DHT22;30716;41.740;-70.400;2023-04-25T10:41:10;24.10;42.40
44982;DHT22;30716;41.740;-70.400;2023-04-25T10:43:41;24.10;42.50
44982;DHT22;30716;41.740;-70.400;2023-04-25T10:48:53;24.00;42.50
44982;DHT22;30716;41.740;-70.400;2023-04-25T10:54:04;24.10;42.50
44982;DHT22;30716;41.740;-70.400;2023-04-25T10:59:13;24.00;42.50
44982;DHT22;30716;41.740;-70.400;2023-04-25T11:01:45;24.00;42.50
44982;DHT22;30716;41.740;-70.400;2023-04-25T11:04:30;24.00;42.50
44982;DHT22;30716;41.740;-70.400;2023-04-25T11:09:33;24.00;42.50
44982;DHT22;30716;41.740;-70.400;2023-04-25T11:12:00;24.00;42.40
44982;DHT22;30716;41.740;-70.400;2023-04-25T11:14:27;24.10;42.50
44982;DHT22;30716;41.740;-70.400;2023-04-25T11:16:54;24.00;42.50
44982;DHT22;30716;41.740;-70.400;2023-04-25T11:19:25;24.10;42.50
44982;DHT22;30716;41.740;-70.400;2023-04-25T11:21:58;24.10;42.40
44982;DHT22;30716;41.740;-70.400;2023-04-25T11:24:31;24.10;42.50
44982;DHT22;30716;41.740;-70.400;2023-04-25T11:26:59;24.10;42.40
44982;DHT22;30716;41.740;-70.400;2023-04-25T11:29:29;24.10;42.40
44982;DHT22;30716;41.740;-70.400;2023-04-25T11:31:56;24.10;42.40
44982;DHT22;30716;41.740;-70.400;2023-04-25T11:34:24;24.10;42.40
44982;DHT22;30716;41.740;-70.400;2023-04-25T11:36:51;24.10;42.30
44982;DHT22;30716;41.740;-70.400;2023-04-25T11:39:21;24.10;42.10
44982;DHT22;30716;41.740;-70.400;2023-04-25T11:41:47;24.20;42.20
44982;DHT22;30716;41.740;-70.400;2023-04-25T11:44:16;24.20;42.30
44982;DHT22;30716;41.740;-70.400;2023-04-25T11:46:43;24.20;42.30
44982;DHT22;30716;41.740;-70.400;2023-04-25T11:49:09;24.20;42.10
44982;DHT22;30716;41.740;-70.400;2023-04-25T11:51:43;24.20;42.20
44982;DHT22;30716;41.740;-70.400;2023-04-25T11:54:10;24.20;42.20
44982;DHT22;30716;41.740;-70.400;2023-04-25T11:56:36;24.20;42.30
44982;DHT22;30716;41.740;-70.400;2023-04-25T11:59:03;24.20;42.30
44982;DHT22;30716;41.740;-70.400;2023-04-25T12:03:58;24.20;42.30
44982;DHT22;30716;41.740;-70.400;2023-04-25T12:06:30;24.20;42.20
44982;DHT22;30716;41.740;-70.400;2023-04-25T12:09:09;24.20;42.30
44982;DHT22;30716;41.740;-70.400;2023-04-25T12:11:56;24.20;42.20
44982;DHT22;30716;41.740;-70.400;2023-04-25T12:14:32;24.30;42.30
44982;DHT22;30716;41.740;-70.400;2023-04-25T12:16:59;24.20;42.10
44982;DHT22;30716;41.740;-70.400;2023-04-25T12:19:31;24.30;42.30
44982;DHT22;30716;41.740;-70.400;2023-04-25T12:22:00;24.20;42.10
44982;DHT22;30716;41.740;-70.400;2023-04-25T12:24:27;24.30;42.10
44982;DHT22;30716;41.740;-70.400;2023-04-25T12:27:04;24.30;42.10
44982;DHT22;30716;41.740;-70.400;2023-04-25T12:29:32;24.30;42.20
44982;DHT22;30716;41.740;-70.400;2023-04-25T12:31:59;24.30;42.20
44982;DHT22;30716;41.740;-70.400;2023-04-25T12:34:28;24.30;42.20
44982;DHT22;30716;41.740;-70.400;2023-04-25T12:36:54;24.30;42.20
44982;DHT22;30716;41.740;-70.400;2023-04-25T12:39:23;24.30;42.10
44982;DHT22;30716;41.740;-70.400;2023-04-25T12:41:50;24.30;42.20
44982;DHT22;30716;41.740;-70.400;2023-04-25T12:44:20;24.30;42.20
44982;DHT22;30716;41.740;-70.400;2023-04-25T12:46:47;24.30;42.20
44982;DHT22;30716;41.740;-70.400;2023-04-25T12:49:14;24.30;42.20
44982;DHT22;30716;41.740;-70.400;2023-04-25T12:51:40;24.30;42.20
44982;DHT22;30716;41.740;-70.400;2023-04-25T12:54:07;24.30;42.00
44982;DHT22;30716;41.740;-70.400;2023-04-25T12:56:34;24.30;42.10
44982;DHT22;30716;41.740;-70.400;2023-04-25T12:59:01;24.30;42.10
44982;DHT22;30716;41.740;-70.400;2023-04-25T13:01:29;24.30;42.10
44982;DHT22;30716;41.740;-70.400;2023-04-25T13:03:55;24.30;42.10
44982;DHT22;30716;41.740;-70.400;2023-04-25T13:06:22;24.30;42.10
44982;DHT22;30716;41.740;-70.400;2023-04-25T13:08:48;24.30;42.10
44982;DHT22;30716;41.740;-70.400;2023-04-25T13:11:14;24.30;42.10
44982;DHT22;30716;41.740;-70.400;2023-04-25T13:13:41;24.30;42.20
44982;DHT22;30716;41.740;-70.400;2023-04-25T13:16:07;24.30;42.20
44982;DHT22;30716;41.740;-70.400;2023-04-25T13:18:34;24.30;42.20
44982;DHT22;30716;41.740;-70.400;2023-04-25T13:21:01;24.30;42.20
44982;DHT22;30716;41.740;-70.400;2023-04-25T13:23:28;24.30;42.10
44982;DHT22;30716;41.740;-70.400;2023-04-25T13:25:55;24.40;43.00
44982;DHT22;30716;41.740;-70.400;2023-04-25T13:28:24;24.30;42.10
44982;DHT22;30716;41.740;-70.400;2023-04-25T13:30:50;24.30;42.20
44982;DHT22;30716;41.740;-70.400;2023-04-25T13:33:17;24.30;42.20
44982;DHT22;30716;41.740;-70.400;2023-04-25T13:35:44;24.30;42.20
44982;DHT22;30716;41.740;-70.400;2023-04-25T13:38:23;24.30;42.10
44982;DHT22;30716;41.740;-70.400;2023-04-25T13:40:50;24.30;42.20
44982;DHT22;30716;41.740;-70.400;2023-04-25T13:43:21;24.30;42.10
44982;DHT22;30716;41.740;-70.400;2023-04-25T13:45:51;24.40;42.20
44982;DHT22;30716;41.740;-70.400;2023-04-25T13:48:18;24.30;42.00
44982;DHT22;30716;41.740;-70.400;2023-04-25T13:50:44;24.30;42.20
44982;DHT22;30716;41.740;-70.400;2023-04-25T13:53:11;24.30;42.20
44982;DHT22;30716;41.740;-70.400;2023-04-25T13:55:37;24.30;42.20
44982;DHT22;30716;41.740;-70.400;2023-04-25T13:58:04;24.30;42.20
44982;DHT22;30716;41.740;-70.400;2023-04-25T14:00:37;24.30;42.20
44982;DHT22;30716;41.740;-70.400;2023-04-25T14:03:09;24.30;42.20
44982;DHT22;30716;41.740;-70.400;2023-04-25T14:05:36;24.30;42.20
44982;DHT22;30716;41.740;-70.400;2023-04-25T14:08:07;24.30;42.20
44982;DHT22;30716;41.740;-70.400;2023-04-25T14:10:33;24.30;43.10
44982;DHT22;30716;41.740;-70.400;2023-04-25T14:13:00;24.30;42.30
44982;DHT22;30716;41.740;-70.400;2023-04-25T14:15:27;24.30;42.30
44982;DHT22;30716;41.740;-70.400;2023-04-25T14:17:53;24.30;42.30
44982;DHT22;30716;41.740;-70.400;2023-04-25T14:20:19;24.30;42.30
44982;DHT22;30716;41.740;-70.400;2023-04-25T14:22:47;24.30;42.40
44982;DHT22;30716;41.740;-70.400;2023-04-25T14:25:13;24.20;42.40
44982;DHT22;30716;41.740;-70.400;2023-04-25T14:27:39;24.20;42.40
44982;DHT22;30716;41.740;-70.400;2023-04-25T14:30:06;24.20;42.40
44982;DHT22;30716;41.740;-70.400;2023-04-25T14:32:34;24.20;42.40
44982;DHT22;30716;41.740;-70.400;2023-04-25T14:35:00;24.20;42.40
44982;DHT22;30716;41.740;-70.400;2023-04-25T14:37:26;24.30;42.50
44982;DHT22;30716;41.740;-70.400;2023-04-25T14:39:53;24.20;42.30
44982;DHT22;30716;41.740;-70.400;2023-04-25T14:42:19;24.20;42.40
44982;DHT22;30716;41.740;-70.400;2023-04-25T14:44:45;24.20;42.50
44982;DHT22;30716;41.740;-70.400;2023-04-25T14:47:11;24.20;42.40
44982;DHT22;30716;41.740;-70.400;2023-04-25T14:49:37;24.20;42.40
44982;DHT22;30716;41.740;-70.400;2023-04-25T14:52:03;24.20;42.40
44982;DHT22;30716;41.740;-70.400;2023-04-25T14:54:29;24.30;42.50
44982;DHT22;30716;41.740;-70.400;2023-04-25T14:56:55;24.20;42.50
44982;DHT22;30716;41.740;-70.400;2023-04-25T14:59:22;24.20;42.40
44982;DHT22;30716;41.740;-70.400;2023-04-25T15:01:50;24.20;42.30
44982;DHT22;30716;41.740;-70.400;2023-04-25T15:04:16;24.20;42.40
44982;DHT22;30716;41.740;-70.400;2023-04-25T15:06:43;24.20;42.40
44982;DHT22;30716;41.740;-70.400;2023-04-25T15:09:09;24.20;42.50
44982;DHT22;30716;41.740;-70.400;2023-04-25T15:11:36;24.20;42.40
44982;DHT22;30716;41.740;-70.400;2023-04-25T15:14:03;24.20;42.40
44982;DHT22;30716;41.740;-70.400;2023-04-25T15:16:29;24.20;42.40
44982;DHT22;30716;41.740;-70.400;2023-04-25T15:18:56;24.20;42.40
44982;DHT22;30716;41.740;-70.400;2023-04-25T15:21:22;24.20;42.30